sensor_id;sensor_type;location;lat;lon;timestamp;temperature;humidity
1277;DHT22;631;51.024;13.826;2023-06-14T00:00:19;13.00;99.90
1277;DHT22;631;51.024;13.826;2023-06-14T00:02:45;12.90;99.90
1277;DHT22;631;51.024;13.826;2023-06-14T00:05:11;13.00;99.90
1277;DHT22;631;51.024;13.826;2023-06-14T00:07:39;12.90;99.90
1277;DHT22;631;51.024;13.826;2023-06-14T00:10:08;12.90;99.90
1277;DHT22;631;51.024;13.826;2023-06-14T00:12:34;12.90;99.90
1277;DHT22;631;51.024;13.826;2023-06-14T00:15:00;12.80;99.90
1277;DHT22;631;51.024;13.826;2023-06-14T00:17:29;12.80;99.90
1277;DHT22;631;51.024;13.826;2023-06-14T00:19:58;12.80;99.90
1277;DHT22;631;51.024;13.826;2023-06-14T00:22:24;12.70;99.90
1277;DHT22;631;51.024;13.826;2023-06-14T00:24:53;12.70;99.90
1277;DHT22;631;51.024;13.826;2023-06-14T00:27:19;12.60;99.90
1277;DHT22;631;51.024;13.826;2023-06-14T00:29:44;12.60;99.90
1277;DHT22;631;51.024;13.826;2023-06-14T00:32:10;12.50;99.90
1277;DHT22;631;51.024;13.826;2023-06-14T00:34:36;12.40;99.90
1277;DHT22;631;51.024;13.826;2023-06-14T00:37:02;12.40;99.90
1277;DHT22;631;51.024;13.826;2023-06-14T00:39:27;12.30;99.90
1277;DHT22;631;51.024;13.826;2023-06-14T00:41:53;12.30;99.90
1277;DHT22;631;51.024;13.826;2023-06-14T00:44:19;12.20;99.90
1277;DHT22;631;51.024;13.826;2023-06-14T00:46:47;12.20;99.90
1277;DHT22;631;51.024;13.826;2023-06-14T00:49:17;12.10;99.90
1277;DHT22;631;51.024;13.826;2023-06-14T00:51:45;12.10;99.90
1277;DHT22;631;51.024;13.826;2023-06-14T00:54:11;12.00;99.90
1277;DHT22;631;51.024;13.826;2023-06-14T00:56:37;12.00;99.90
1277;DHT22;631;51.024;13.826;2023-06-14T00:59:03;12.00;99.90
1277;DHT22;631;51.024;13.826;2023-06-14T01:01:30;12.00;99.90
1277;DHT22;631;51.024;13.826;2023-06-14T01:03:58;11.90;99.90
1277;DHT22;631;51.024;13.826;2023-06-14T01:14:29;11.80;99.90
1277;DHT22;631;51.024;13.826;2023-06-14T01:16:57;11.80;99.90
1277;DHT22;631;51.024;13.826;2023-06-14T01:19:25;11.70;99.90
1277;DHT22;631;51.024;13.826;2023-06-14T01:21:51;11.80;99.90
1277;DHT22;631;51.024;13.826;2023-06-14T01:24:18;11.70;99.90
1277;DHT22;631;51.024;13.826;2023-06-14T01:26:53;11.70;99.90
1277;DHT22;631;51.024;13.826;2023-06-14T01:29:22;11.70;99.90
1277;DHT22;631;51.024;13.826;2023-06-14T01:31:49;11.70;99.90
1277;DHT22;631;51.024;13.826;2023-06-14T01:34:16;11.70;99.90
1277;DHT22;631;51.024;13.826;2023-06-14T01:36:43;11.70;99.90
1277;DHT22;631;51.024;13.826;2023-06-14T01:39:14;11.60;99.90
1277;DHT22;631;51.024;13.826;2023-06-14T01:41:41;11.60;99.90
1277;DHT22;631;51.024;13.826;2023-06-14T01:44:08;11.60;99.90
1277;DHT22;631;51.024;13.826;2023-06-14T01:46:35;11.50;99.90
1277;DHT22;631;51.024;13.826;2023-06-14T01:49:01;11.50;99.90
1277;DHT22;631;51.024;13.826;2023-06-14T01:51:27;11.50;99.90
1277;DHT22;631;51.024;13.826;2023-06-14T01:53:53;11.40;99.90
1277;DHT22;631;51.024;13.826;2023-06-14T01:56:18;11.40;99.90
1277;DHT22;631;51.024;13.826;2023-06-14T01:58:45;11.40;99.90
1277;DHT22;631;51.024;13.826;2023-06-14T02:01:11;11.40;99.90
1277;DHT22;631;51.024;13.826;2023-06-14T02:03:38;11.40;99.90
1277;DHT22;631;51.024;13.826;2023-06-14T02:06:04;11.30;99.90
1277;DHT22;631;51.024;13.826;2023-06-14T02:08:30;11.30;99.90
1277;DHT22;631;51.024;13.826;2023-06-14T02:10:55;11.30;99.90
1277;DHT22;631;51.024;13.826;2023-06-14T02:13:21;11.20;99.90
1277;DHT22;631;51.024;13.826;2023-06-14T02:15:47;11.20;99.90
1277;DHT22;631;51.024;13.826;2023-06-14T02:18:16;11.20;99.90
1277;DHT22;631;51.024;13.826;2023-06-14T02:20:42;11.20;99.90
1277;DHT22;631;51.024;13.826;2023-06-14T02:23:07;11.10;99.90
1277;DHT22;631;51.024;13.826;2023-06-14T02:25:33;11.10;99.90
1277;DHT22;631;51.024;13.826;2023-06-14T02:27:58;11.10;99.90
1277;DHT22;631;51.024;13.826;2023-06-14T02:30:24;11.00;99.90
1277;DHT22;631;51.024;13.826;2023-06-14T02:32:50;11.00;99.90
1277;DHT22;631;51.024;13.826;2023-06-14T02:35:16;11.00;99.90
1277;DHT22;631;51.024;13.826;2023-06-14T02:37:42;11.00;99.90
1277;DHT22;631;51.024;13.826;2023-06-14T02:40:08;11.00;99.90
1277;DHT22;631;51.024;13.826;2023-06-14T02:42:34;11.00;99.90
1277;DHT22;631;51.024;13.826;2023-06-14T02:45:00;10.90;99.90
1277;DHT22;631;51.024;13.826;2023-06-14T02:47:27;10.90;99.90
1277;DHT22;631;51.024;13.826;2023-06-14T02:49:53;10.90;99.90
1277;DHT22;631;51.024;13.826;2023-06-14T02:52:18;10.80;99.90
1277;DHT22;631;51.024;13.826;2023-06-14T02:54:45;10.80;99.90
1277;DHT22;631;51.024;13.826;2023-06-14T02:57:12;10.80;99.90
1277;DHT22;631;51.024;13.826;2023-06-14T02:59:38;10.70;99.90
1277;DHT22;631;51.024;13.826;2023-06-14T03:02:04;10.70;99.90
1277;DHT22;631;51.024;13.826;2023-06-14T03:04:30;10.70;99.90
1277;DHT22;631;51.024;13.826;2023-06-14T03:07:00;10.60;99.90
1277;DHT22;631;51.024;13.826;2023-06-14T03:09:28;10.60;99.90
1277;DHT22;631;51.024;13.826;2023-06-14T03:11:54;10.60;99.90
1277;DHT22;631;51.024;13.826;2023-06-14T03:14:21;10.60;99.90
1277;DHT22;631;51.024;13.826;2023-06-14T03:16:47;10.50;99.90
1277;DHT22;631;51.024;13.826;2023-06-14T03:19:15;10.50;99.90
1277;DHT22;631;51.024;13.826;2023-06-14T03:21:41;10.50;99.90
1277;DHT22;631;51.024;13.826;2023-06-14T03:24:09;10.50;99.90
1277;DHT22;631;51.024;13.826;2023-06-14T03:26:35;10.50;99.90
1277;DHT22;631;51.024;13.826;2023-06-14T03:29:02;10.50;99.90
1277;DHT22;631;51.024;13.826;2023-06-14T03:31:29;10.50;99.90
1277;DHT22;631;51.024;13.826;2023-06-14T03:33:58;10.50;99.90
1277;DHT22;631;51.024;13.826;2023-06-14T03:36:23;10.50;99.90
1277;DHT22;631;51.024;13.826;2023-06-14T03:38:50;10.50;99.90
1277;DHT22;631;51.024;13.826;2023-06-14T03:41:16;10.60;99.90
1277;DHT22;631;51.024;13.826;2023-06-14T03:43:41;10.60;99.90
1277;DHT22;631;51.024;13.826;2023-06-14T03:46:07;10.60;99.90
1277;DHT22;631;51.024;13.826;2023-06-14T03:48:33;10.60;99.90
1277;DHT22;631;51.024;13.826;2023-06-14T03:50:59;10.60;99.90
1277;DHT22;631;51.024;13.826;2023-06-14T03:53:24;10.60;99.90
1277;DHT22;631;51.024;13.826;2023-06-14T03:55:50;10.60;99.90
1277;DHT22;631;51.024;13.826;2023-06-14T03:58:19;10.60;99.90
1277;DHT22;631;51.024;13.826;2023-06-14T04:00:44;10.60;99.90
1277;DHT22;631;51.024;13.826;2023-06-14T04:03:11;10.60;99.90
1277;DHT22;631;51.024;13.826;2023-06-14T04:05:39;10.60;99.90
1277;DHT22;631;51.024;13.826;2023-06-14T04:08:10;10.60;99.90
1277;DHT22;631;51.024;13.826;2023-06-14T04:10:40;10.70;99.90
1277;DHT22;631;51.024;13.826;2023-06-14T04:13:06;10.60;99.90
1277;DHT22;631;51.024;13.826;2023-06-14T04:15:32;10.60;99.90
1277;DHT22;631;51.024;13.826;2023-06-14T04:17:58;10.60;99.90
1277;DHT22;631;51.024;13.826;2023-06-14T04:20:24;10.60;99.90
1277;DHT22;631;51.024;13.826;2023-06-14T04:22:53;10.60;99.90
1277;DHT22;631;51.024;13.826;2023-06-14T04:25:19;10.70;99.90
1277;DHT22;631;51.024;13.826;2023-06-14T04:27:44;10.60;99.90
1277;DHT22;631;51.024;13.826;2023-06-14T04:30:12;10.60;99.90
1277;DHT22;631;51.024;13.826;2023-06-14T04:32:38;10.60;99.90
1277;DHT22;631;51.024;13.826;2023-06-14T04:35:08;10.70;99.90
1277;DHT22;631;51.024;13.826;2023-06-14T04:37:33;10.80;99.90
1277;DHT22;631;51.024;13.826;2023-06-14T04:40:00;10.80;99.90
1277;DHT22;631;51.024;13.826;2023-06-14T04:42:26;10.90;99.90
1277;DHT22;631;51.024;13.826;2023-06-14T04:44:56;10.80;99.90
1277;DHT22;631;51.024;13.826;2023-06-14T04:47:23;10.90;99.90
1277;DHT22;631;51.024;13.826;2023-06-14T04:49:56;11.00;99.90
1277;DHT22;631;51.024;13.826;2023-06-14T04:52:22;11.10;99.90
1277;DHT22;631;51.024;13.826;2023-06-14T04:54:48;11.10;99.90
1277;DHT22;631;51.024;13.826;2023-06-14T04:57:14;11.20;99.90
1277;DHT22;631;51.024;13.826;2023-06-14T04:59:43;11.20;99.90
1277;DHT22;631;51.024;13.826;2023-06-14T05:02:10;11.30;99.90
1277;DHT22;631;51.024;13.826;2023-06-14T05:04:37;11.40;99.90
1277;DHT22;631;51.024;13.826;2023-06-14T05:07:09;11.40;99.90
1277;DHT22;631;51.024;13.826;2023-06-14T05:09:36;11.50;99.90
1277;DHT22;631;51.024;13.826;2023-06-14T05:12:02;11.50;99.90
1277;DHT22;631;51.024;13.826;2023-06-14T05:14:28;11.60;99.90
1277;DHT22;631;51.024;13.826;2023-06-14T05:16:53;11.70;99.90
1277;DHT22;631;51.024;13.826;2023-06-14T05:19:19;11.80;99.90
1277;DHT22;631;51.024;13.826;2023-06-14T05:21:46;11.80;99.90
1277;DHT22;631;51.024;13.826;2023-06-14T05:24:13;11.90;99.90
1277;DHT22;631;51.024;13.826;2023-06-14T05:26:39;12.00;99.90
1277;DHT22;631;51.024;13.826;2023-06-14T05:29:04;12.10;99.90
1277;DHT22;631;51.024;13.826;2023-06-14T05:31:30;12.20;99.90
1277;DHT22;631;51.024;13.826;2023-06-14T05:33:56;12.20;99.90
1277;DHT22;631;51.024;13.826;2023-06-14T05:36:22;12.30;99.90
1277;DHT22;631;51.024;13.826;2023-06-14T05:38:48;12.40;99.90
1277;DHT22;631;51.024;13.826;2023-06-14T05:41:13;12.40;99.90
1277;DHT22;631;51.024;13.826;2023-06-14T05:43:39;12.50;99.90
1277;DHT22;631;51.024;13.826;2023-06-14T05:46:05;12.60;99.90
1277;DHT22;631;51.024;13.826;2023-06-14T05:48:31;12.60;99.90
1277;DHT22;631;51.024;13.826;2023-06-14T05:50:56;12.70;99.90
1277;DHT22;631;51.024;13.826;2023-06-14T05:53:22;12.80;99.90
1277;DHT22;631;51.024;13.826;2023-06-14T05:55:48;12.90;99.90
1277;DHT22;631;51.024;13.826;2023-06-14T05:58:14;13.00;99.90
1277;DHT22;631;51.024;13.826;2023-06-14T06:00:40;13.10;99.90
1277;DHT22;631;51.024;13.826;2023-06-14T06:03:05;13.20;99.90
1277;DHT22;631;51.024;13.826;2023-06-14T06:05:33;13.30;99.90
1277;DHT22;631;51.024;13.826;2023-06-14T06:07:59;13.40;99.90
1277;DHT22;631;51.024;13.826;2023-06-14T06:10:25;13.50;99.90
1277;DHT22;631;51.024;13.826;2023-06-14T06:12:51;13.50;99.90
1277;DHT22;631;51.024;13.826;2023-06-14T06:15:18;13.60;99.90
1277;DHT22;631;51.024;13.826;2023-06-14T06:17:44;13.70;99.90
1277;DHT22;631;51.024;13.826;2023-06-14T06:20:10;13.80;99.90
1277;DHT22;631;51.024;13.826;2023-06-14T06:22:37;13.90;99.90
1277;DHT22;631;51.024;13.826;2023-06-14T06:25:03;14.00;99.90
1277;DHT22;631;51.024;13.826;2023-06-14T06:27:29;14.10;99.90
1277;DHT22;631;51.024;13.826;2023-06-14T06:29:55;14.20;99.90
1277;DHT22;631;51.024;13.826;2023-06-14T06:32:21;14.20;99.90
1277;DHT22;631;51.024;13.826;2023-06-14T06:34:47;14.30;99.90
1277;DHT22;631;51.024;13.826;2023-06-14T06:37:13;14.30;99.90
1277;DHT22;631;51.024;13.826;2023-06-14T06:39:39;14.40;99.90
1277;DHT22;631;51.024;13.826;2023-06-14T06:42:05;14.50;99.90
1277;DHT22;631;51.024;13.826;2023-06-14T06:44:32;14.60;99.90
1277;DHT22;631;51.024;13.826;2023-06-14T06:46:57;14.70;99.90
1277;DHT22;631;51.024;13.826;2023-06-14T06:49:23;14.80;99.90
1277;DHT22;631;51.024;13.826;2023-06-14T06:52:05;14.90;99.90
1277;DHT22;631;51.024;13.826;2023-06-14T06:54:32;15.10;99.90
1277;DHT22;631;51.024;13.826;2023-06-14T06:56:58;15.20;99.90
1277;DHT22;631;51.024;13.826;2023-06-14T06:59:24;15.20;99.90
1277;DHT22;631;51.024;13.826;2023-06-14T07:01:50;15.40;99.90
1277;DHT22;631;51.024;13.826;2023-06-14T07:04:16;15.40;99.90
1277;DHT22;631;51.024;13.826;2023-06-14T07:06:42;15.50;99.90
1277;DHT22;631;51.024;13.826;2023-06-14T07:09:08;15.50;99.90
1277;DHT22;631;51.024;13.826;2023-06-14T07:11:41;15.60;99.90
1277;DHT22;631;51.024;13.826;2023-06-14T07:14:07;15.60;99.90
1277;DHT22;631;51.024;13.826;2023-06-14T07:16:33;15.80;99.90
1277;DHT22;631;51.024;13.826;2023-06-14T07:18:58;15.90;99.90
1277;DHT22;631;51.024;13.826;2023-06-14T07:21:26;16.00;99.90
1277;DHT22;631;51.024;13.826;2023-06-14T07:23:52;16.20;99.90
1277;DHT22;631;51.024;13.826;2023-06-14T07:26:18;16.30;99.90
1277;DHT22;631;51.024;13.826;2023-06-14T07:28:44;16.40;99.90
1277;DHT22;631;51.024;13.826;2023-06-14T07:31:14;16.50;99.90
1277;DHT22;631;51.024;13.826;2023-06-14T07:33:41;16.60;99.80
1277;DHT22;631;51.024;13.826;2023-06-14T07:36:07;16.70;98.70
1277;DHT22;631;51.024;13.826;2023-06-14T07:38:33;16.90;96.80
1277;DHT22;631;51.024;13.826;2023-06-14T07:40:59;17.10;96.20
1277;DHT22;631;51.024;13.826;2023-06-14T07:43:25;17.20;95.40
1277;DHT22;631;51.024;13.826;2023-06-14T07:45:50;17.40;94.30
1277;DHT22;631;51.024;13.826;2023-06-14T07:48:16;17.60;93.20
1277;DHT22;631;51.024;13.826;2023-06-14T07:50:42;17.80;91.30
1277;DHT22;631;51.024;13.826;2023-06-14T07:53:08;18.00;90.30
1277;DHT22;631;51.024;13.826;2023-06-14T07:55:34;18.20;89.20
1277;DHT22;631;51.024;13.826;2023-06-14T07:58:02;18.40;88.40
1277;DHT22;631;51.024;13.826;2023-06-14T08:00:28;18.60;85.80
1277;DHT22;631;51.024;13.826;2023-06-14T08:02:54;18.70;85.80
1277;DHT22;631;51.024;13.826;2023-06-14T08:05:24;18.80;85.20
1277;DHT22;631;51.024;13.826;2023-06-14T08:07:51;18.90;81.40
1277;DHT22;631;51.024;13.826;2023-06-14T08:10:16;19.00;81.80
1277;DHT22;631;51.024;13.826;2023-06-14T08:12:42;19.10;80.00
1277;DHT22;631;51.024;13.826;2023-06-14T08:15:08;19.20;79.10
1277;DHT22;631;51.024;13.826;2023-06-14T08:17:34;19.30;78.60
1277;DHT22;631;51.024;13.826;2023-06-14T08:20:00;19.50;76.00
1277;DHT22;631;51.024;13.826;2023-06-14T08:22:26;19.60;74.90
1277;DHT22;631;51.024;13.826;2023-06-14T08:24:53;19.60;73.70
1277;DHT22;631;51.024;13.826;2023-06-14T08:27:20;19.60;73.80
1277;DHT22;631;51.024;13.826;2023-06-14T08:29:45;19.70;71.40
1277;DHT22;631;51.024;13.826;2023-06-14T08:32:12;19.90;69.60
1277;DHT22;631;51.024;13.826;2023-06-14T08:34:37;20.00;68.00
1277;DHT22;631;51.024;13.826;2023-06-14T08:37:03;20.10;69.70
1277;DHT22;631;51.024;13.826;2023-06-14T08:39:30;20.20;69.60
1277;DHT22;631;51.024;13.826;2023-06-14T08:41:57;20.40;69.60
1277;DHT22;631;51.024;13.826;2023-06-14T08:44:23;20.60;69.30
1277;DHT22;631;51.024;13.826;2023-06-14T08:46:50;20.80;65.00
1277;DHT22;631;51.024;13.826;2023-06-14T08:49:17;20.80;63.90
1277;DHT22;631;51.024;13.826;2023-06-14T08:51:43;20.80;63.90
1277;DHT22;631;51.024;13.826;2023-06-14T08:54:11;20.90;63.10
1277;DHT22;631;51.024;13.826;2023-06-14T08:56:38;21.00;63.40
1277;DHT22;631;51.024;13.826;2023-06-14T08:59:04;21.20;61.30
1277;DHT22;631;51.024;13.826;2023-06-14T09:01:35;21.50;60.90
1277;DHT22;631;51.024;13.826;2023-06-14T09:04:02;21.70;59.00
1277;DHT22;631;51.024;13.826;2023-06-14T09:06:28;21.90;60.50
1277;DHT22;631;51.024;13.826;2023-06-14T09:08:55;22.00;59.50
1277;DHT22;631;51.024;13.826;2023-06-14T09:11:22;22.20;58.10
1277;DHT22;631;51.024;13.826;2023-06-14T09:13:49;22.50;55.50
1277;DHT22;631;51.024;13.826;2023-06-14T09:16:15;22.70;54.30
1277;DHT22;631;51.024;13.826;2023-06-14T09:18:44;23.00;53.90
1277;DHT22;631;51.024;13.826;2023-06-14T09:21:11;23.20;51.50
1277;DHT22;631;51.024;13.826;2023-06-14T09:23:41;23.40;50.80
1277;DHT22;631;51.024;13.826;2023-06-14T09:26:14;23.60;48.40
1277;DHT22;631;51.024;13.826;2023-06-14T09:28:47;23.70;47.10
1277;DHT22;631;51.024;13.826;2023-06-14T09:31:18;23.80;48.40
1277;DHT22;631;51.024;13.826;2023-06-14T09:33:45;24.00;48.40
1277;DHT22;631;51.024;13.826;2023-06-14T09:36:24;24.40;48.20
1277;DHT22;631;51.024;13.826;2023-06-14T09:41:33;24.60;47.20
1277;DHT22;631;51.024;13.826;2023-06-14T09:44:00;24.70;47.30
1277;DHT22;631;51.024;13.826;2023-06-14T09:46:28;24.90;46.60
1277;DHT22;631;51.024;13.826;2023-06-14T09:49:00;25.00;46.20
1277;DHT22;631;51.024;13.826;2023-06-14T09:51:27;25.10;44.90
1277;DHT22;631;51.024;13.826;2023-06-14T09:53:58;25.00;44.30
1277;DHT22;631;51.024;13.826;2023-06-14T09:56:28;24.90;46.00
1277;DHT22;631;51.024;13.826;2023-06-14T09:58:57;24.90;46.50
1277;DHT22;631;51.024;13.826;2023-06-14T10:01:24;24.90;44.90
1277;DHT22;631;51.024;13.826;2023-06-14T10:03:52;25.10;45.40
1277;DHT22;631;51.024;13.826;2023-06-14T10:06:21;25.60;44.30
1277;DHT22;631;51.024;13.826;2023-06-14T10:08:50;26.30;43.40
1277;DHT22;631;51.024;13.826;2023-06-14T10:11:17;27.10;40.90
1277;DHT22;631;51.024;13.826;2023-06-14T10:13:43;27.00;40.10
1277;DHT22;631;51.024;13.826;2023-06-14T10:18:48;27.90;40.10
1277;DHT22;631;51.024;13.826;2023-06-14T10:21:32;28.40;38.20
1277;DHT22;631;51.024;13.826;2023-06-14T10:24:03;28.70;35.80
1277;DHT22;631;51.024;13.826;2023-06-14T10:26:30;29.20;35.60
1277;DHT22;631;51.024;13.826;2023-06-14T10:29:16;29.70;32.70
1277;DHT22;631;51.024;13.826;2023-06-14T10:34:08;30.30;30.50
1277;DHT22;631;51.024;13.826;2023-06-14T10:36:34;30.20;30.00
1277;DHT22;631;51.024;13.826;2023-06-14T10:39:07;30.20;29.60
1277;DHT22;631;51.024;13.826;2023-06-14T10:41:38;29.60;29.00
1277;DHT22;631;51.024;13.826;2023-06-14T10:46:39;28.60;30.70
1277;DHT22;631;51.024;13.826;2023-06-14T10:49:05;27.80;30.90
1277;DHT22;631;51.024;13.826;2023-06-14T10:51:42;27.30;32.20
1277;DHT22;631;51.024;13.826;2023-06-14T10:54:17;27.00;34.10
1277;DHT22;631;51.024;13.826;2023-06-14T10:56:52;27.30;35.10
1277;DHT22;631;51.024;13.826;2023-06-14T10:59:18;28.20;34.10
1277;DHT22;631;51.024;13.826;2023-06-14T11:04:20;29.10;31.00
1277;DHT22;631;51.024;13.826;2023-06-14T11:06:50;28.80;30.50
1277;DHT22;631;51.024;13.826;2023-06-14T11:11:47;27.80;32.40
1277;DHT22;631;51.024;13.826;2023-06-14T11:14:13;27.30;33.00
1277;DHT22;631;51.024;13.826;2023-06-14T11:16:39;27.00;34.50
1277;DHT22;631;51.024;13.826;2023-06-14T11:19:05;26.50;35.60
1277;DHT22;631;51.024;13.826;2023-06-14T11:21:32;25.90;36.80
1277;DHT22;631;51.024;13.826;2023-06-14T11:23:58;25.50;37.60
1277;DHT22;631;51.024;13.826;2023-06-14T11:26:29;25.10;38.80
1277;DHT22;631;51.024;13.826;2023-06-14T11:28:59;24.80;39.50
1277;DHT22;631;51.024;13.826;2023-06-14T11:31:26;24.30;40.40
1277;DHT22;631;51.024;13.826;2023-06-14T11:33:59;24.00;41.20
1277;DHT22;631;51.024;13.826;2023-06-14T11:36:33;23.80;41.90
1277;DHT22;631;51.024;13.826;2023-06-14T11:39:00;23.60;42.00
1277;DHT22;631;51.024;13.826;2023-06-14T11:41:32;23.60;43.20
1277;DHT22;631;51.024;13.826;2023-06-14T11:44:00;23.80;42.80
1277;DHT22;631;51.024;13.826;2023-06-14T11:46:26;23.80;43.00
1277;DHT22;631;51.024;13.826;2023-06-14T11:48:52;23.80;43.30
1277;DHT22;631;51.024;13.826;2023-06-14T11:51:19;23.90;43.40
1277;DHT22;631;51.024;13.826;2023-06-14T11:53:46;24.10;43.50
1277;DHT22;631;51.024;13.826;2023-06-14T11:56:12;24.20;43.60
1277;DHT22;631;51.024;13.826;2023-06-14T11:58:38;24.40;43.30
1277;DHT22;631;51.024;13.826;2023-06-14T12:01:04;24.50;43.60
1277;DHT22;631;51.024;13.826;2023-06-14T12:03:29;24.50;42.80
1277;DHT22;631;51.024;13.826;2023-06-14T12:06:07;24.60;42.70
1277;DHT22;631;51.024;13.826;2023-06-14T12:08:35;24.50;43.00
1277;DHT22;631;51.024;13.826;2023-06-14T12:11:04;24.50;43.00
1277;DHT22;631;51.024;13.826;2023-06-14T12:13:31;24.30;43.10
1277;DHT22;631;51.024;13.826;2023-06-14T12:15:56;24.10;43.40
1277;DHT22;631;51.024;13.826;2023-06-14T12:18:35;23.90;43.90
1277;DHT22;631;51.024;13.826;2023-06-14T12:21:02;23.90;43.00
1277;DHT22;631;51.024;13.826;2023-06-14T12:23:39;23.70;43.40
1277;DHT22;631;51.024;13.826;2023-06-14T12:26:05;23.60;44.40
1277;DHT22;631;51.024;13.826;2023-06-14T12:28:31;23.80;44.60
1277;DHT22;631;51.024;13.826;2023-06-14T12:30:58;24.60;44.50
1277;DHT22;631;51.024;13.826;2023-06-14T12:33:24;25.40;43.20
1277;DHT22;631;51.024;13.826;2023-06-14T12:35:50;26.20;41.70
1277;DHT22;631;51.024;13.826;2023-06-14T12:38:16;26.50;41.50
1277;DHT22;631;51.024;13.826;2023-06-14T12:40:42;26.70;39.80
1277;DHT22;631;51.024;13.826;2023-06-14T12:43:08;26.90;40.20
1277;DHT22;631;51.024;13.826;2023-06-14T12:45:34;27.80;40.10
1277;DHT22;631;51.024;13.826;2023-06-14T12:47:59;29.00;38.10
1277;DHT22;631;51.024;13.826;2023-06-14T12:50:25;30.10;34.00
1277;DHT22;631;51.024;13.826;2023-06-14T12:52:51;30.90;32.60
1277;DHT22;631;51.024;13.826;2023-06-14T12:55:16;31.40;31.30
1277;DHT22;631;51.024;13.826;2023-06-14T12:57:43;31.90;30.40
1277;DHT22;631;51.024;13.826;2023-06-14T13:00:09;32.10;29.10
1277;DHT22;631;51.024;13.826;2023-06-14T13:02:35;32.60;28.20
1277;DHT22;631;51.024;13.826;2023-06-14T13:05:01;33.10;27.60
1277;DHT22;631;51.024;13.826;2023-06-14T13:07:29;33.40;26.60
1277;DHT22;631;51.024;13.826;2023-06-14T13:09:54;33.90;25.90
1277;DHT22;631;51.024;13.826;2023-06-14T13:12:20;33.90;25.20
1277;DHT22;631;51.024;13.826;2023-06-14T13:14:45;33.90;24.30
1277;DHT22;631;51.024;13.826;2023-06-14T13:17:11;34.40;23.90
1277;DHT22;631;51.024;13.826;2023-06-14T13:19:37;34.30;23.40
1277;DHT22;631;51.024;13.826;2023-06-14T13:22:03;34.10;23.20
1277;DHT22;631;51.024;13.826;2023-06-14T13:24:29;34.40;23.90
1277;DHT22;631;51.024;13.826;2023-06-14T13:26:56;34.30;23.40
1277;DHT22;631;51.024;13.826;2023-06-14T13:29:23;34.00;23.40
1277;DHT22;631;51.024;13.826;2023-06-14T13:31:48;33.40;24.40
1277;DHT22;631;51.024;13.826;2023-06-14T13:34:14;32.50;25.00
1277;DHT22;631;51.024;13.826;2023-06-14T13:36:40;31.60;26.50
1277;DHT22;631;51.024;13.826;2023-06-14T13:39:05;30.80;27.10
1277;DHT22;631;51.024;13.826;2023-06-14T13:41:31;29.90;28.30
1277;DHT22;631;51.024;13.826;2023-06-14T13:44:01;29.20;29.20
1277;DHT22;631;51.024;13.826;2023-06-14T13:46:29;29.10;29.50
1277;DHT22;631;51.024;13.826;2023-06-14T13:48:55;29.60;28.70
1277;DHT22;631;51.024;13.826;2023-06-14T13:51:21;30.20;27.80
1277;DHT22;631;51.024;13.826;2023-06-14T13:53:48;30.60;27.30
1277;DHT22;631;51.024;13.826;2023-06-14T13:56:14;31.40;26.20
1277;DHT22;631;51.024;13.826;2023-06-14T13:58:40;32.10;25.40
1277;DHT22;631;51.024;13.826;2023-06-14T14:01:06;32.50;24.70
1277;DHT22;631;51.024;13.826;2023-06-14T14:03:32;32.70;24.40
1277;DHT22;631;51.024;13.826;2023-06-14T14:05:57;32.80;23.70
1277;DHT22;631;51.024;13.826;2023-06-14T14:08:23;32.50;24.10
1277;DHT22;631;51.024;13.826;2023-06-14T14:10:48;31.70;24.80
1277;DHT22;631;51.024;13.826;2023-06-14T14:13:14;30.70;25.80
1277;DHT22;631;51.024;13.826;2023-06-14T14:15:40;30.30;27.00
1277;DHT22;631;51.024;13.826;2023-06-14T14:18:05;30.60;27.40
1277;DHT22;631;51.024;13.826;2023-06-14T14:20:31;31.00;27.00
1277;DHT22;631;51.024;13.826;2023-06-14T14:22:56;31.20;25.80
1277;DHT22;631;51.024;13.826;2023-06-14T14:25:22;31.60;26.00
1277;DHT22;631;51.024;13.826;2023-06-14T14:27:48;32.00;25.60
1277;DHT22;631;51.024;13.826;2023-06-14T14:30:13;32.50;25.10
1277;DHT22;631;51.024;13.826;2023-06-14T14:32:40;32.50;24.60
1277;DHT22;631;51.024;13.826;2023-06-14T14:35:06;32.50;24.20
1277;DHT22;631;51.024;13.826;2023-06-14T14:37:32;32.90;24.00
1277;DHT22;631;51.024;13.826;2023-06-14T14:39:57;33.00;22.60
1277;DHT22;631;51.024;13.826;2023-06-14T14:42:23;33.20;21.90
1277;DHT22;631;51.024;13.826;2023-06-14T14:44:49;33.50;21.30
1277;DHT22;631;51.024;13.826;2023-06-14T14:47:14;33.60;20.80
1277;DHT22;631;51.024;13.826;2023-06-14T14:49:40;33.70;21.00
1277;DHT22;631;51.024;13.826;2023-06-14T14:52:07;33.90;20.90
1277;DHT22;631;51.024;13.826;2023-06-14T14:54:33;33.70;20.60
1277;DHT22;631;51.024;13.826;2023-06-14T14:56:58;33.40;20.40
1277;DHT22;631;51.024;13.826;2023-06-14T14:59:24;33.30;19.20
1277;DHT22;631;51.024;13.826;2023-06-14T15:01:49;33.30;19.80
1277;DHT22;631;51.024;13.826;2023-06-14T15:04:16;33.20;19.60
1277;DHT22;631;51.024;13.826;2023-06-14T15:06:41;33.00;19.60
1277;DHT22;631;51.024;13.826;2023-06-14T15:09:07;32.90;19.90
1277;DHT22;631;51.024;13.826;2023-06-14T15:11:33;33.10;20.20
1277;DHT22;631;51.024;13.826;2023-06-14T15:13:58;33.20;19.10
1277;DHT22;631;51.024;13.826;2023-06-14T15:16:24;33.30;18.80
1277;DHT22;631;51.024;13.826;2023-06-14T15:18:50;33.40;19.10
1277;DHT22;631;51.024;13.826;2023-06-14T15:21:16;33.50;19.90
1277;DHT22;631;51.024;13.826;2023-06-14T15:23:45;33.70;20.40
1277;DHT22;631;51.024;13.826;2023-06-14T15:26:11;33.70;20.00
1277;DHT22;631;51.024;13.826;2023-06-14T15:28:36;33.50;19.50
1277;DHT22;631;51.024;13.826;2023-06-14T15:31:02;33.40;20.00
1277;DHT22;631;51.024;13.826;2023-06-14T15:33:27;33.30;19.90
1277;DHT22;631;51.024;13.826;2023-06-14T15:35:53;33.20;19.80
1277;DHT22;631;51.024;13.826;2023-06-14T15:38:20;32.90;20.50
1277;DHT22;631;51.024;13.826;2023-06-14T15:40:46;33.10;20.20
1277;DHT22;631;51.024;13.826;2023-06-14T15:43:11;33.00;19.70
1277;DHT22;631;51.024;13.826;2023-06-14T15:45:37;32.90;18.10
1277;DHT22;631;51.024;13.826;2023-06-14T15:48:03;32.50;18.20
1277;DHT22;631;51.024;13.826;2023-06-14T15:50:28;32.50;18.20
1277;DHT22;631;51.024;13.826;2023-06-14T15:52:54;32.60;18.20
1277;DHT22;631;51.024;13.826;2023-06-14T15:55:20;32.20;18.70
1277;DHT22;631;51.024;13.826;2023-06-14T15:57:47;32.00;18.40
1277;DHT22;631;51.024;13.826;2023-06-14T16:00:13;31.80;18.50
1277;DHT22;631;51.024;13.826;2023-06-14T16:02:39;31.40;19.10
1277;DHT22;631;51.024;13.826;2023-06-14T16:05:05;31.30;19.60
1277;DHT22;631;51.024;13.826;2023-06-14T16:07:31;31.30;20.20
1277;DHT22;631;51.024;13.826;2023-06-14T16:09:57;31.20;20.30
1277;DHT22;631;51.024;13.826;2023-06-14T16:12:22;31.40;19.60
1277;DHT22;631;51.024;13.826;2023-06-14T16:14:48;31.20;20.20
1277;DHT22;631;51.024;13.826;2023-06-14T16:17:14;31.10;19.60
1277;DHT22;631;51.024;13.826;2023-06-14T16:19:39;30.90;19.90
1277;DHT22;631;51.024;13.826;2023-06-14T16:22:05;30.80;20.40